ADDS TAF Board (Experimental) INFO Settings
IDs: Format: Expanded Condensed

KCVG - Cincinnati Intl, KY, US

Issued at 0841 UTC 25 May 2015
Updated at: 0923 UTC 25 May 2015
Time0852Z 25/10Z 25/11Z 25/12Z 25/13Z 25/14Z 25/15Z 25/16Z 25/17Z 25/18Z 25/19Z 25/20Z 25/21Z 25/22Z
Type OBS PRVL PRVL PRVL PRVL PRVL PRVL PRVL PRVL PRVL PRVL PRVL PRVL PRVL
VIS 10 >6 >6 >6 >6 >6 >6 >6 >6 >6 >6 >6 >6 >6
CIG -- 90 90 90 80 80 80 50 50 50 50 50 50 50
Cover SCT BKN BKN BKN BKN BKN BKN BKN BKN BKN BKN BKN BKN BKN
FltCat VFR VFR VFR VFR VFR VFR VFR VFR VFR VFR VFR VFR VFR VFR
WX -- VCSH VCSH VCSH -- -- -- VCSH VCSH VCSH VCSH VCSH VCSH VCSH
WDir 190 190 190 190 200 200 200 210 210 210 210 210 210 210
WSpd 9 13 13 13 18 18 18 15 15 15 15 15 15 15
WGst -- -- -- -- 30 30 30 23 23 23 23 23 23 23
R09/27
XWnd -9 -13 -13 -13 -17 -17 -17 -13 -13 -13 -13 -13 -13 -13
XGst -- -- -- -- -28 -28 -28 -20 -20 -20 -20 -20 -20 -20
HWnd -2 -2 -2 -2 -6 -6 -6 -7 -7 -7 -7 -7 -7 -7
HGst -- -- -- -- -10 -10 -10 -11 -11 -11 -11 -11 -11 -11
R18/36
XWnd -2 -2 -2 -2 -6 -6 -6 -7 -7 -7 -7 -7 -7 -7
XGst -- -- -- -- -10 -10 -10 -11 -11 -11 -11 -11 -11 -11
HWnd 9 13 13 13 17 17 17 13 13 13 13 13 13 13
HGst -- -- -- -- 28 28 28 20 20 20 20 20 20 20

NOTE: TEMPO conditions in [brackets]. Keep in mind TEMPO conditions might be better (lower impact) than prevailing conditions.

Raw TAF
KCVG 250841Z 2509/2612 19013KT P6SM VCSH BKN090
  FM251300 20018G30KT P6SM SCT050 BKN080
  FM251600 21015G23KT P6SM VCSH BKN050
  FM252300 18005KT P6SM BKN100


Raw METAR
KCVG 250852Z 19009KT 10SM SCT110 21/13 A3009 RMK AO2 SLP180 T02110133 55007 $
KCVG 250752Z 19010KT 10SM FEW070 BKN160 21/13 A3009 RMK AO2 SLP178 T02060128 $
KCVG 250652Z 18009KT 10SM SCT065 SCT120 21/13 A3009 RMK AO2 SLP180 T02110128 $

METAR Board
Radar Display
Forecast Discussion

TAF Board Legend

Potential Impact
Threat None Slight Moderate High
Visibility (sm) ≥5.1 5.1>X≥3 3>X≥1 <1
Ceiling (100 ft) ≥30.1 30.1>X≥10 10>X≥5 <5
Wind Speed (kt) <10 10≤X<20 20≤X<30 ≥30
Wind Gust (kt) <15 15≤X<25 25≤X<35 ≥35
Weather No Wx Reported VCTS,-TS,-FZRA,SN TS,FZRA +TS,+FZRA,+SN